sensor_id;sensor_type;location;lat;lon;timestamp;pressure;altitude;pressure_sealevel;temperature;humidity
52983;BME280;48698;45.736;13.926;2023-05-22T00:02:53;97406.31;;;16.98;100.00
52983;BME280;48698;45.736;13.926;2023-05-22T00:07:56;97316.84;;;16.54;100.00
52983;BME280;48698;45.736;13.926;2023-05-22T00:12:59;97234.66;;;15.99;100.00
52983;BME280;48698;45.736;13.926;2023-05-22T00:18:01;97157.22;;;15.74;100.00
52983;BME280;48698;45.736;13.926;2023-05-22T00:23:06;97382.00;;;17.22;100.00
52983;BME280;48698;45.736;13.926;2023-05-22T00:28:13;97094.81;;;15.51;100.00
52983;BME280;48698;45.736;13.926;2023-05-22T00:33:16;97228.06;;;16.59;100.00
52983;BME280;48698;45.736;13.926;2023-05-22T00:38:29;97354.25;;;17.43;100.00
52983;BME280;48698;45.736;13.926;2023-05-22T00:43:33;97357.63;;;17.56;100.00
52983;BME280;48698;45.736;13.926;2023-05-22T00:48:36;97351.13;;;17.70;100.00
52983;BME280;48698;45.736;13.926;2023-05-22T00:53:40;97068.09;;;16.06;100.00
52983;BME280;48698;45.736;13.926;2023-05-22T00:58:42;97326.38;;;17.24;100.00
52983;BME280;48698;45.736;13.926;2023-05-22T01:03:45;97104.91;;;15.37;100.00
52983;BME280;48698;45.736;13.926;2023-05-22T01:08:49;97315.56;;;16.60;100.00
52983;BME280;48698;45.736;13.926;2023-05-22T01:20:14;97094.06;;;14.70;100.00
52983;BME280;48698;45.736;13.926;2023-05-22T01:30:42;97208.44;;;15.13;100.00
52983;BME280;48698;45.736;13.926;2023-05-22T01:35:50;97238.38;;;15.29;100.00
52983;BME280;48698;45.736;13.926;2023-05-22T01:41:06;97326.81;;;15.97;100.00
52983;BME280;48698;45.736;13.926;2023-05-22T01:46:12;97316.56;;;15.91;100.00
52983;BME280;48698;45.736;13.926;2023-05-22T01:51:42;97385.38;;;15.67;100.00
52983;BME280;48698;45.736;13.926;2023-05-22T01:57:10;97358.34;;;14.98;100.00
52983;BME280;48698;45.736;13.926;2023-05-22T02:02:17;97379.44;;;15.27;100.00
52983;BME280;48698;45.736;13.926;2023-05-22T02:07:21;97324.91;;;15.17;100.00
52983;BME280;48698;45.736;13.926;2023-05-22T02:12:26;97375.13;;;15.13;100.00
52983;BME280;48698;45.736;13.926;2023-05-22T02:17:29;97226.50;;;13.89;100.00
52983;BME280;48698;45.736;13.926;2023-05-22T02:22:32;97278.13;;;14.26;100.00
52983;BME280;48698;45.736;13.926;2023-05-22T02:27:35;97322.38;;;14.30;100.00
52983;BME280;48698;45.736;13.926;2023-05-22T02:32:39;97356.03;;;14.20;100.00
52983;BME280;48698;45.736;13.926;2023-05-22T02:37:42;97236.00;;;12.90;100.00
52983;BME280;48698;45.736;13.926;2023-05-22T02:42:44;97204.88;;;12.91;100.00
52983;BME280;48698;45.736;13.926;2023-05-22T02:47:48;97184.72;;;13.00;100.00
52983;BME280;48698;45.736;13.926;2023-05-22T02:52:52;97301.22;;;13.51;100.00
52983;BME280;48698;45.736;13.926;2023-05-22T02:57:55;97202.69;;;13.10;100.00
52983;BME280;48698;45.736;13.926;2023-05-22T03:02:58;97110.09;;;12.35;100.00
52983;BME280;48698;45.736;13.926;2023-05-22T03:08:01;97328.53;;;13.55;100.00
52983;BME280;48698;45.736;13.926;2023-05-22T03:13:04;97360.16;;;13.86;100.00
52983;BME280;48698;45.736;13.926;2023-05-22T03:18:07;97148.16;;;13.02;100.00
52983;BME280;48698;45.736;13.926;2023-05-22T03:23:19;97236.97;;;13.79;100.00
52983;BME280;48698;45.736;13.926;2023-05-22T03:28:22;97141.38;;;13.10;100.00
52983;BME280;48698;45.736;13.926;2023-05-22T03:33:26;97175.50;;;13.43;100.00
52983;BME280;48698;45.736;13.926;2023-05-22T03:38:29;97370.13;;;14.96;100.00
52983;BME280;48698;45.736;13.926;2023-05-22T03:43:32;97246.34;;;14.10;100.00
52983;BME280;48698;45.736;13.926;2023-05-22T03:48:37;97320.13;;;14.49;100.00
52983;BME280;48698;45.736;13.926;2023-05-22T03:53:40;97133.16;;;13.26;100.00
52983;BME280;48698;45.736;13.926;2023-05-22T03:58:43;97248.53;;;14.29;100.00
52983;BME280;48698;45.736;13.926;2023-05-22T04:03:45;97368.41;;;15.08;100.00
52983;BME280;48698;45.736;13.926;2023-05-22T04:08:48;97359.53;;;14.71;100.00
52983;BME280;48698;45.736;13.926;2023-05-22T04:13:52;97370.69;;;14.88;100.00
52983;BME280;48698;45.736;13.926;2023-05-22T04:18:55;97368.94;;;14.64;100.00
52983;BME280;48698;45.736;13.926;2023-05-22T04:23:58;97300.13;;;14.29;100.00
52983;BME280;48698;45.736;13.926;2023-05-22T04:29:02;97372.13;;;14.81;100.00
52983;BME280;48698;45.736;13.926;2023-05-22T04:34:06;97333.72;;;14.82;100.00
52983;BME280;48698;45.736;13.926;2023-05-22T04:39:09;97247.66;;;14.77;100.00
52983;BME280;48698;45.736;13.926;2023-05-22T04:44:11;97376.56;;;15.77;100.00
52983;BME280;48698;45.736;13.926;2023-05-22T04:49:25;97232.81;;;14.97;100.00
52983;BME280;48698;45.736;13.926;2023-05-22T04:54:30;97365.00;;;16.34;100.00
52983;BME280;48698;45.736;13.926;2023-05-22T04:59:34;97371.09;;;16.58;100.00
52983;BME280;48698;45.736;13.926;2023-05-22T05:04:41;97255.47;;;15.96;100.00
52983;BME280;48698;45.736;13.926;2023-05-22T05:09:44;97268.72;;;16.64;100.00
52983;BME280;48698;45.736;13.926;2023-05-22T05:14:47;97256.19;;;17.08;100.00
52983;BME280;48698;45.736;13.926;2023-05-22T05:19:50;97332.00;;;17.84;100.00
52983;BME280;48698;45.736;13.926;2023-05-22T05:24:53;97268.91;;;17.58;100.00
52983;BME280;48698;45.736;13.926;2023-05-22T05:29:55;97339.88;;;18.18;100.00
52983;BME280;48698;45.736;13.926;2023-05-22T05:34:59;97361.88;;;18.53;100.00
52983;BME280;48698;45.736;13.926;2023-05-22T05:40:02;97254.56;;;18.20;100.00
52983;BME280;48698;45.736;13.926;2023-05-22T05:45:09;97212.88;;;18.25;100.00
52983;BME280;48698;45.736;13.926;2023-05-22T05:50:12;97364.41;;;19.25;100.00
52983;BME280;48698;45.736;13.926;2023-05-22T05:55:17;97349.44;;;19.41;100.00
52983;BME280;48698;45.736;13.926;2023-05-22T06:00:29;97305.88;;;19.27;100.00
52983;BME280;48698;45.736;13.926;2023-05-22T06:05:32;97283.94;;;19.31;100.00
52983;BME280;48698;45.736;13.926;2023-05-22T06:10:35;97321.53;;;19.71;100.00
52983;BME280;48698;45.736;13.926;2023-05-22T06:15:38;97314.25;;;20.00;100.00
52983;BME280;48698;45.736;13.926;2023-05-22T06:20:41;97360.50;;;20.34;100.00
52983;BME280;48698;45.736;13.926;2023-05-22T06:25:45;97373.75;;;20.55;100.00
52983;BME280;48698;45.736;13.926;2023-05-22T06:30:48;97115.19;;;19.13;100.00
52983;BME280;48698;45.736;13.926;2023-05-22T06:35:55;97306.41;;;20.26;100.00
52983;BME280;48698;45.736;13.926;2023-05-22T06:40:58;97157.41;;;19.41;100.00
52983;BME280;48698;45.736;13.926;2023-05-22T06:46:01;97179.88;;;19.59;100.00
52983;BME280;48698;45.736;13.926;2023-05-22T06:51:14;97325.75;;;20.58;100.00
52983;BME280;48698;45.736;13.926;2023-05-22T06:56:17;97375.47;;;21.30;100.00
52983;BME280;48698;45.736;13.926;2023-05-22T07:01:20;97256.78;;;20.83;100.00
52983;BME280;48698;45.736;13.926;2023-05-22T07:06:23;97265.16;;;21.07;100.00
52983;BME280;48698;45.736;13.926;2023-05-22T07:11:26;97309.47;;;21.85;100.00
52983;BME280;48698;45.736;13.926;2023-05-22T07:16:29;97253.00;;;21.74;100.00
52983;BME280;48698;45.736;13.926;2023-05-22T07:21:33;97060.56;;;21.01;100.00
52983;BME280;48698;45.736;13.926;2023-05-22T07:26:37;97375.69;;;22.60;100.00
52983;BME280;48698;45.736;13.926;2023-05-22T07:31:40;97381.38;;;22.75;100.00
52983;BME280;48698;45.736;13.926;2023-05-22T07:36:43;97314.28;;;22.86;100.00
52983;BME280;48698;45.736;13.926;2023-05-22T07:41:47;97139.31;;;21.76;100.00
52983;BME280;48698;45.736;13.926;2023-05-22T07:46:56;97200.00;;;22.41;100.00
52983;BME280;48698;45.736;13.926;2023-05-22T07:51:59;97248.63;;;22.92;100.00
52983;BME280;48698;45.736;13.926;2023-05-22T07:57:02;97309.78;;;23.53;100.00
52983;BME280;48698;45.736;13.926;2023-05-22T08:02:05;97310.97;;;23.75;100.00
52983;BME280;48698;45.736;13.926;2023-05-22T08:07:11;97344.59;;;24.14;100.00
52983;BME280;48698;45.736;13.926;2023-05-22T08:12:14;97291.00;;;23.76;100.00
52983;BME280;48698;45.736;13.926;2023-05-22T08:17:27;97165.88;;;22.98;97.63
52983;BME280;48698;45.736;13.926;2023-05-22T08:22:30;97293.00;;;23.90;100.00
52983;BME280;48698;45.736;13.926;2023-05-22T08:27:33;97113.38;;;22.67;98.73
52983;BME280;48698;45.736;13.926;2023-05-22T08:32:35;97186.41;;;23.16;94.28
52983;BME280;48698;45.736;13.926;2023-05-22T08:37:38;97078.03;;;22.68;95.33
52983;BME280;48698;45.736;13.926;2023-05-22T08:42:41;97124.97;;;23.33;92.87
52983;BME280;48698;45.736;13.926;2023-05-22T08:47:45;97297.59;;;24.46;91.02
52983;BME280;48698;45.736;13.926;2023-05-22T08:52:54;97343.56;;;25.18;92.52
52983;BME280;48698;45.736;13.926;2023-05-22T08:58:00;97337.63;;;25.77;87.67
52983;BME280;48698;45.736;13.926;2023-05-22T09:03:03;97331.53;;;25.52;87.28
52983;BME280;48698;45.736;13.926;2023-05-22T09:08:08;97269.22;;;25.03;84.99
52983;BME280;48698;45.736;13.926;2023-05-22T09:13:25;97328.59;;;25.84;88.07
52983;BME280;48698;45.736;13.926;2023-05-22T09:18:28;97180.34;;;24.81;84.25
52983;BME280;48698;45.736;13.926;2023-05-22T09:23:31;97328.94;;;25.81;81.03
52983;BME280;48698;45.736;13.926;2023-05-22T09:28:35;97349.53;;;25.76;80.30
52983;BME280;48698;45.736;13.926;2023-05-22T09:33:38;97312.28;;;25.53;81.46
52983;BME280;48698;45.736;13.926;2023-05-22T09:38:41;97259.22;;;26.03;82.81
52983;BME280;48698;45.736;13.926;2023-05-22T09:43:50;97308.91;;;26.57;77.17
52983;BME280;48698;45.736;13.926;2023-05-22T09:48:53;97217.47;;;26.10;76.95
52983;BME280;48698;45.736;13.926;2023-05-22T09:54:02;97352.44;;;27.53;75.30
52983;BME280;48698;45.736;13.926;2023-05-22T09:59:07;97285.88;;;27.33;72.14
52983;BME280;48698;45.736;13.926;2023-05-22T10:04:11;97312.38;;;27.39;73.44
52983;BME280;48698;45.736;13.926;2023-05-22T10:09:16;97336.47;;;27.50;72.62
52983;BME280;48698;45.736;13.926;2023-05-22T10:14:21;97141.97;;;26.27;72.86
52983;BME280;48698;45.736;13.926;2023-05-22T10:34:16;97308.78;;;28.80;67.22
52983;BME280;48698;45.736;13.926;2023-05-22T10:49:47;97314.16;;;29.01;65.83
52983;BME280;48698;45.736;13.926;2023-05-22T11:19:09;97235.47;;;27.64;65.82
52983;BME280;48698;45.736;13.926;2023-05-22T11:24:24;97297.41;;;27.64;64.44
52983;BME280;48698;45.736;13.926;2023-05-22T11:29:29;97139.09;;;26.94;66.95
52983;BME280;48698;45.736;13.926;2023-05-22T11:34:33;97183.06;;;27.27;64.07
52983;BME280;48698;45.736;13.926;2023-05-22T11:39:36;97262.31;;;28.03;64.68
52983;BME280;48698;45.736;13.926;2023-05-22T11:44:40;97269.97;;;28.63;65.28
52983;BME280;48698;45.736;13.926;2023-05-22T11:49:43;97217.13;;;27.73;64.71
52983;BME280;48698;45.736;13.926;2023-05-22T11:54:47;97279.81;;;28.09;61.10
52983;BME280;48698;45.736;13.926;2023-05-22T11:59:51;97187.09;;;27.52;62.39
52983;BME280;48698;45.736;13.926;2023-05-22T12:05:05;97271.22;;;27.69;62.77
52983;BME280;48698;45.736;13.926;2023-05-22T12:10:13;97258.94;;;27.59;61.69
52983;BME280;48698;45.736;13.926;2023-05-22T12:15:18;97253.75;;;27.85;60.99
52983;BME280;48698;45.736;13.926;2023-05-22T12:20:30;97237.75;;;27.61;61.34
52983;BME280;48698;45.736;13.926;2023-05-22T12:25:35;97177.16;;;27.23;60.58
52983;BME280;48698;45.736;13.926;2023-05-22T12:30:41;97246.66;;;28.12;61.93
52983;BME280;48698;45.736;13.926;2023-05-22T12:35:44;97243.53;;;28.15;61.91
52983;BME280;48698;45.736;13.926;2023-05-22T12:40:58;97183.75;;;27.50;60.50
52983;BME280;48698;45.736;13.926;2023-05-22T12:46:02;97101.56;;;27.38;61.96
52983;BME280;48698;45.736;13.926;2023-05-22T12:51:06;97229.56;;;28.03;60.43
52983;BME280;48698;45.736;13.926;2023-05-22T12:56:11;97110.75;;;27.09;59.77
52983;BME280;48698;45.736;13.926;2023-05-22T13:01:15;97235.72;;;27.91;60.21
52983;BME280;48698;45.736;13.926;2023-05-22T13:06:19;97020.34;;;27.27;63.80
52983;BME280;48698;45.736;13.926;2023-05-22T13:11:22;97222.75;;;27.93;60.43
52983;BME280;48698;45.736;13.926;2023-05-22T13:16:26;97230.47;;;28.38;62.91
52983;BME280;48698;45.736;13.926;2023-05-22T13:21:30;97237.72;;;28.24;60.50
52983;BME280;48698;45.736;13.926;2023-05-22T13:26:34;97182.84;;;27.92;60.74
52983;BME280;48698;45.736;13.926;2023-05-22T13:31:37;96990.03;;;26.52;60.66
52983;BME280;48698;45.736;13.926;2023-05-22T13:36:42;97114.03;;;27.96;62.95
52983;BME280;48698;45.736;13.926;2023-05-22T13:41:46;97048.31;;;26.93;61.80
52983;BME280;48698;45.736;13.926;2023-05-22T13:46:49;97208.81;;;28.30;63.17
52983;BME280;48698;45.736;13.926;2023-05-22T13:51:53;97203.31;;;27.81;62.54
52983;BME280;48698;45.736;13.926;2023-05-22T13:56:59;97196.63;;;28.33;66.25
52983;BME280;48698;45.736;13.926;2023-05-22T14:02:03;97190.84;;;28.49;61.31
52983;BME280;48698;45.736;13.926;2023-05-22T14:07:08;97054.47;;;27.72;61.35
52983;BME280;48698;45.736;13.926;2023-05-22T14:12:11;97185.72;;;28.67;62.27
52983;BME280;48698;45.736;13.926;2023-05-22T14:17:14;97186.06;;;28.98;62.33
52983;BME280;48698;45.736;13.926;2023-05-22T14:22:16;97176.75;;;28.80;59.05
52983;BME280;48698;45.736;13.926;2023-05-22T14:27:19;97013.00;;;27.55;61.08
52983;BME280;48698;45.736;13.926;2023-05-22T14:32:22;97122.06;;;28.73;61.06
52983;BME280;48698;45.736;13.926;2023-05-22T14:37:25;97181.63;;;28.91;60.23
52983;BME280;48698;45.736;13.926;2023-05-22T14:42:28;97144.00;;;28.86;60.87
52983;BME280;48698;45.736;13.926;2023-05-22T14:47:31;97054.78;;;28.24;60.87
52983;BME280;48698;45.736;13.926;2023-05-22T14:52:33;97090.28;;;28.24;60.06
52983;BME280;48698;45.736;13.926;2023-05-22T14:57:44;97189.22;;;28.61;60.03
52983;BME280;48698;45.736;13.926;2023-05-22T15:02:48;96966.25;;;27.31;60.70
52983;BME280;48698;45.736;13.926;2023-05-22T15:07:51;97147.81;;;28.98;59.84
52983;BME280;48698;45.736;13.926;2023-05-22T15:12:54;97166.25;;;29.57;60.10
52983;BME280;48698;45.736;13.926;2023-05-22T15:17:56;97155.13;;;29.58;61.50
52983;BME280;48698;45.736;13.926;2023-05-22T15:23:01;97152.69;;;29.16;58.51
52983;BME280;48698;45.736;13.926;2023-05-22T15:28:05;96941.69;;;27.99;59.18
52983;BME280;48698;45.736;13.926;2023-05-22T15:33:10;97131.44;;;29.11;60.56
52983;BME280;48698;45.736;13.926;2023-05-22T15:38:14;97155.16;;;28.98;60.18
52983;BME280;48698;45.736;13.926;2023-05-22T15:43:18;96881.50;;;26.70;59.55
52983;BME280;48698;45.736;13.926;2023-05-22T15:48:32;97110.00;;;28.13;60.46
52983;BME280;48698;45.736;13.926;2023-05-22T15:53:46;97070.47;;;28.09;58.68
52983;BME280;48698;45.736;13.926;2023-05-22T15:58:53;97147.09;;;28.42;58.83
52983;BME280;48698;45.736;13.926;2023-05-22T16:04:06;97140.78;;;28.42;57.78
52983;BME280;48698;45.736;13.926;2023-05-22T16:09:08;97017.66;;;27.34;58.98
52983;BME280;48698;45.736;13.926;2023-05-22T16:14:11;97150.13;;;28.60;59.94
52983;BME280;48698;45.736;13.926;2023-05-22T16:19:14;97152.66;;;27.93;60.63
52983;BME280;48698;45.736;13.926;2023-05-22T16:24:17;97094.94;;;27.68;60.81
52983;BME280;48698;45.736;13.926;2023-05-22T16:29:20;97148.25;;;28.20;60.26
52983;BME280;48698;45.736;13.926;2023-05-22T16:34:23;97145.72;;;28.59;61.33
52983;BME280;48698;45.736;13.926;2023-05-22T16:39:32;97054.31;;;28.62;62.29
52983;BME280;48698;45.736;13.926;2023-05-22T16:44:36;97158.47;;;29.60;60.33
52983;BME280;48698;45.736;13.926;2023-05-22T16:49:39;97159.00;;;29.16;62.31
52983;BME280;48698;45.736;13.926;2023-05-22T16:54:42;97159.22;;;28.27;60.17
52983;BME280;48698;45.736;13.926;2023-05-22T16:59:45;97060.00;;;27.51;60.09
52983;BME280;48698;45.736;13.926;2023-05-22T17:04:58;97092.81;;;27.43;63.29
52983;BME280;48698;45.736;13.926;2023-05-22T17:10:02;97142.81;;;27.07;67.05
52983;BME280;48698;45.736;13.926;2023-05-22T17:15:05;96907.28;;;25.31;68.67
52983;BME280;48698;45.736;13.926;2023-05-22T17:20:10;97142.28;;;26.97;70.88
52983;BME280;48698;45.736;13.926;2023-05-22T17:25:13;97027.00;;;26.61;69.57
52983;BME280;48698;45.736;13.926;2023-05-22T17:30:15;97195.34;;;27.80;69.97
52983;BME280;48698;45.736;13.926;2023-05-22T17:35:21;97216.19;;;28.70;69.86
52983;BME280;48698;45.736;13.926;2023-05-22T17:40:24;97190.41;;;27.11;71.13
52983;BME280;48698;45.736;13.926;2023-05-22T17:45:44;97155.06;;;27.54;70.38
52983;BME280;48698;45.736;13.926;2023-05-22T17:50:52;97141.75;;;26.87;71.23
52983;BME280;48698;45.736;13.926;2023-05-22T17:56:00;97062.03;;;25.47;78.89
52983;BME280;48698;45.736;13.926;2023-05-22T18:01:02;97195.38;;;25.53;88.66
52983;BME280;48698;45.736;13.926;2023-05-22T18:06:05;97198.06;;;25.61;83.13
52983;BME280;48698;45.736;13.926;2023-05-22T18:11:08;97237.13;;;24.60;85.00
52983;BME280;48698;45.736;13.926;2023-05-22T18:16:11;97260.38;;;23.09;100.00
52983;BME280;48698;45.736;13.926;2023-05-22T18:21:13;97196.09;;;22.69;100.00
52983;BME280;48698;45.736;13.926;2023-05-22T18:26:16;97256.78;;;21.46;100.00
52983;BME280;48698;45.736;13.926;2023-05-22T18:36:24;97264.81;;;20.66;100.00
52983;BME280;48698;45.736;13.926;2023-05-22T18:41:28;97265.91;;;20.73;100.00
52983;BME280;48698;45.736;13.926;2023-05-22T18:46:32;97287.91;;;19.66;100.00
52983;BME280;48698;45.736;13.926;2023-05-22T18:51:36;97295.88;;;19.67;100.00
52983;BME280;48698;45.736;13.926;2023-05-22T18:56:39;97292.97;;;19.21;100.00
52983;BME280;48698;45.736;13.926;2023-05-22T19:01:43;97324.59;;;19.28;100.00
52983;BME280;48698;45.736;13.926;2023-05-22T19:06:47;97329.22;;;18.57;100.00
52983;BME280;48698;45.736;13.926;2023-05-22T19:11:51;97329.75;;;18.51;100.00
52983;BME280;48698;45.736;13.926;2023-05-22T19:16:54;97333.50;;;18.39;100.00
52983;BME280;48698;45.736;13.926;2023-05-22T19:21:58;97336.66;;;17.82;100.00
52983;BME280;48698;45.736;13.926;2023-05-22T19:27:01;97343.47;;;17.66;100.00
52983;BME280;48698;45.736;13.926;2023-05-22T19:32:05;97314.00;;;17.00;100.00
52983;BME280;48698;45.736;13.926;2023-05-22T19:37:09;97330.16;;;17.64;100.00
52983;BME280;48698;45.736;13.926;2023-05-22T19:42:12;97352.38;;;17.23;100.00
52983;BME280;48698;45.736;13.926;2023-05-22T19:47:16;97352.81;;;17.71;100.00
52983;BME280;48698;45.736;13.926;2023-05-22T19:52:39;97347.59;;;17.90;100.00
52983;BME280;48698;45.736;13.926;2023-05-22T19:57:43;97339.44;;;17.17;100.00
52983;BME280;48698;45.736;13.926;2023-05-22T20:02:45;97371.09;;;17.77;100.00
52983;BME280;48698;45.736;13.926;2023-05-22T20:07:49;97380.19;;;17.22;100.00
52983;BME280;48698;45.736;13.926;2023-05-22T20:12:53;97386.81;;;16.96;100.00
52983;BME280;48698;45.736;13.926;2023-05-22T20:17:56;97397.41;;;16.64;100.00
52983;BME280;48698;45.736;13.926;2023-05-22T20:22:59;97290.78;;;15.90;100.00
52983;BME280;48698;45.736;13.926;2023-05-22T20:28:02;97400.91;;;16.42;100.00
52983;BME280;48698;45.736;13.926;2023-05-22T20:33:06;97377.38;;;16.13;100.00
52983;BME280;48698;45.736;13.926;2023-05-22T20:38:09;97412.34;;;16.22;100.00
52983;BME280;48698;45.736;13.926;2023-05-22T20:43:15;97415.72;;;16.24;100.00
52983;BME280;48698;45.736;13.926;2023-05-22T20:48:19;97404.28;;;15.76;100.00
52983;BME280;48698;45.736;13.926;2023-05-22T20:53:26;97403.97;;;15.44;100.00
52983;BME280;48698;45.736;13.926;2023-05-22T20:58:29;97415.13;;;15.38;100.00
52983;BME280;48698;45.736;13.926;2023-05-22T21:03:32;97417.59;;;15.18;100.00
52983;BME280;48698;45.736;13.926;2023-05-22T21:08:35;97430.50;;;15.60;100.00
52983;BME280;48698;45.736;13.926;2023-05-22T21:13:38;97390.09;;;14.67;100.00
52983;BME280;48698;45.736;13.926;2023-05-22T21:18:40;97441.03;;;15.50;100.00
52983;BME280;48698;45.736;13.926;2023-05-22T21:23:44;97396.50;;;14.77;100.00
52983;BME280;48698;45.736;13.926;2023-05-22T21:28:52;97438.34;;;15.01;100.00
52983;BME280;48698;45.736;13.926;2023-05-22T21:33:55;97446.56;;;14.49;100.00
52983;BME280;48698;45.736;13.926;2023-05-22T21:38:57;97444.13;;;15.57;100.00
52983;BME280;48698;45.736;13.926;2023-05-22T21:44:01;97269.19;;;13.89;100.00
52983;BME280;48698;45.736;13.926;2023-05-22T21:49:04;97408.91;;;14.65;100.00
52983;BME280;48698;45.736;13.926;2023-05-22T21:54:07;97288.00;;;13.87;100.00
52983;BME280;48698;45.736;13.926;2023-05-22T21:59:10;97310.00;;;14.04;100.00
52983;BME280;48698;45.736;13.926;2023-05-22T22:04:13;97139.91;;;12.40;100.00
52983;BME280;48698;45.736;13.926;2023-05-22T22:09:16;97227.38;;;13.00;100.00
52983;BME280;48698;45.736;13.926;2023-05-22T22:14:18;97208.25;;;13.20;100.00
52983;BME280;48698;45.736;13.926;2023-05-22T22:19:22;97211.53;;;13.11;100.00
52983;BME280;48698;45.736;13.926;2023-05-22T22:24:25;97229.25;;;13.12;100.00
52983;BME280;48698;45.736;13.926;2023-05-22T22:29:29;97332.94;;;13.68;100.00
52983;BME280;48698;45.736;13.926;2023-05-22T22:34:32;97138.97;;;12.14;100.00
52983;BME280;48698;45.736;13.926;2023-05-22T22:39:41;97397.31;;;13.76;100.00
52983;BME280;48698;45.736;13.926;2023-05-22T22:44:43;97166.63;;;11.85;100.00
52983;BME280;48698;45.736;13.926;2023-05-22T22:49:46;97317.94;;;12.60;100.00
52983;BME280;48698;45.736;13.926;2023-05-22T22:54:49;97393.00;;;13.22;100.00
52983;BME280;48698;45.736;13.926;2023-05-22T22:59:59;97295.03;;;12.84;100.00
52983;BME280;48698;45.736;13.926;2023-05-22T23:05:02;97454.41;;;14.26;100.00
52983;BME280;48698;45.736;13.926;2023-05-22T23:10:05;97452.25;;;14.06;100.00
52983;BME280;48698;45.736;13.926;2023-05-22T23:15:09;97455.69;;;14.08;100.00
52983;BME280;48698;45.736;13.926;2023-05-22T23:20:14;97349.88;;;13.42;100.00
52983;BME280;48698;45.736;13.926;2023-05-22T23:25:17;97346.25;;;13.16;100.00
52983;BME280;48698;45.736;13.926;2023-05-22T23:30:20;97368.78;;;13.52;100.00
52983;BME280;48698;45.736;13.926;2023-05-22T23:35:23;97401.06;;;13.74;100.00
52983;BME280;48698;45.736;13.926;2023-05-22T23:40:25;97292.63;;;12.53;100.00
52983;BME280;48698;45.736;13.926;2023-05-22T23:45:28;97245.41;;;11.29;100.00
52983;BME280;48698;45.736;13.926;2023-05-22T23:50:31;97424.34;;;13.04;100.00
52983;BME280;48698;45.736;13.926;2023-05-22T23:55:34;97201.78;;;12.31;100.00
